Friday, February 23, 2018, 2:59 PM EST
Back to Local

KOFP, Hanover County Municipal

Location: Ashland, VA, United States Lat: 37.7
Local Time: 2:59 PM EST (19:59 GMT) Lon: -77.433
Time Zone: US/Eastern Elev: 203 ft

Show me the last for .
Show Decoded

2018-02-23 13:54 METAR KOFP 231854Z AUTO 24003KT 4SM BR OVC006 08/07 A3045 RMK AO2 CIG 006V010
                 SLP313 T00780067 =
2018-02-23 12:54 METAR KOFP 231754Z AUTO 00000KT 5SM BR OVC005 08/06 A3049 RMK AO2 SLP323
                 T00780061 10078 20050 56027 =
2018-02-23 12:31 METAR KOFP 231731Z AUTO 00000KT 4SM BR OVC005 07/06 A3049 RMK AO2 T00720061 =
2018-02-23 11:54 METAR KOFP 231654Z AUTO 00000KT 2 1/2SM BR OVC005 07/06 A3051 RMK AO2 SLP333
                 T00670061 =
2018-02-23 10:54 METAR KOFP 231554Z AUTO 08004KT 9SM OVC005 07/06 A3054 RMK AO2 SLP341 T00670056
                 =
2018-02-23 09:54 METAR KOFP 231454Z AUTO 00000KT 6SM BR OVC006 06/05 A3057 RMK AO2 SLP351
                 T00560050 58002 =
2018-02-23 08:54 METAR KOFP 231354Z AUTO 00000KT 4SM BR OVC005 06/05 A3057 RMK AO2 SLP353
                 T00560050 =
2018-02-23 08:31 METAR KOFP 231331Z AUTO 00000KT 5SM BR OVC005 06/05 A3058 RMK AO2 T00560050 =
2018-02-23 08:09 METAR KOFP 231309Z AUTO VRB03KT 2 1/2SM BR OVC005 05/05 A3058 RMK AO2 CIG
                 004V008 T00500050 =
2018-02-23 07:54 METAR KOFP 231254Z AUTO 02003KT 2 1/2SM BR OVC004 05/05 A3057 RMK AO2 CIG
                 003V009 SLP353 T00500050 =
2018-02-23 07:26 METAR KOFP 231226Z AUTO 00000KT 2SM BR BKN004 OVC010 05/05 A3057 RMK AO2
                 T00500050 =
2018-02-23 07:03 METAR KOFP 231203Z AUTO 00000KT 2SM BR BKN006 OVC010 05/04 A3057 RMK AO2
                 T00500044 =
2018-02-23 06:54 METAR KOFP 231154Z AUTO 00000KT 1 3/4SM BR BKN005 OVC010 05/05 A3057 RMK AO2
                 SLP353 T00500050 10072 20050 53005 =
2018-02-23 06:45 METAR KOFP 231145Z AUTO 35003KT 1 3/4SM BR OVC005 05/04 A3057 RMK AO2 T00500044
                 =
2018-02-23 06:35 METAR KOFP 231135Z AUTO 03003KT 2SM BR OVC005 05/04 A3056 RMK AO2 CIG 003V009
                 T00500044 =
2018-02-23 05:54 METAR KOFP 231054Z AUTO 00000KT 6SM BR OVC005 05/04 A3055 RMK AO2 CIG 004V008
                 SLP346 T00500044 =
2018-02-23 04:54 METAR KOFP 230954Z AUTO VRB04KT 5SM BR OVC005 06/05 A3056 RMK AO2 SLP349
                 T00560050 =
2018-02-23 03:54 METAR KOFP 230854Z AUTO 05005KT 4SM BR OVC005 06/05 A3056 RMK AO2 CIG 004V011
                 SLP348 T00560050 58002 =
2018-02-23 03:42 METAR KOFP 230842Z AUTO 07005KT 3SM BR OVC005 06/05 A3056 RMK AO2 CIG 004V008
                 T00560050 =
2018-02-23 03:06 METAR KOFP 230806Z AUTO VRB04KT 2 1/2SM BR OVC005 06/06 A3057 RMK AO2 CIG
                 004V008 T00610056 =
2018-02-23 02:54 METAR KOFP 230754Z AUTO VRB04KT 3SM BR OVC005 06/06 A3057 RMK AO2 SLP353
                 T00610056 =
2018-02-23 02:44 METAR KOFP 230744Z AUTO 03004KT 3SM BR OVC005 06/06 A3057 RMK AO2 T00610056 =
2018-02-23 02:28 METAR KOFP 230728Z AUTO 03004KT 2SM BR OVC005 06/06 A3056 RMK AO2 T00610056 =
2018-02-23 02:11 METAR KOFP 230711Z AUTO 05004KT 3SM BR BKN005 OVC010 07/06 A3055 RMK AO2 CIG
                 004V009 T00670056 =
2018-02-23 02:01 METAR KOFP 230701Z AUTO VRB05KT 2 1/2SM BR OVC005 07/06 A3055 RMK AO2 T00670061
                 =
2018-02-23 01:54 METAR KOFP 230654Z AUTO 04005KT 3SM BR OVC005 07/06 A3056 RMK AO2 CIG 004V009
                 SLP348 T00670061 =
2018-02-23 01:46 METAR KOFP 230646Z AUTO VRB04KT 2 1/2SM BR OVC005 07/06 A3056 RMK AO2 T00670061
                 =
2018-02-23 01:17 METAR KOFP 230617Z AUTO VRB05KT 4SM BR OVC005 07/06 A3056 RMK AO2 CIG 004V010
                 T00670061 =
2018-02-23 01:07 METAR KOFP 230607Z AUTO VRB03KT 5SM BR OVC004 07/06 A3056 RMK AO2 CIG 004V007
                 T00720061 =
2018-02-23 00:54 METAR KOFP 230554Z AUTO VRB05KT 3SM BR OVC005 07/07 A3056 RMK AO2 SLP348
                 T00720067 10111 20072 52003 =
2018-02-22 23:54 METAR KOFP 230454Z AUTO 10SM OVC007 08/07 A3055 RMK AO2 CIG 006V011 SLP345
                 T00780067 401940078 =
2018-02-22 22:54 METAR KOFP 230354Z AUTO 04003KT 10SM OVC008 08/07 A3056 RMK AO2 SLP349 T00830067
                 =
2018-02-22 21:54 METAR KOFP 230254Z AUTO VRB04KT 10SM OVC008 08/07 A3055 RMK AO2 SLP345 T00830067
                 51018 =
2018-02-22 20:54 METAR KOFP 230154Z AUTO VRB04KT 10SM OVC009 09/07 A3054 RMK AO2 SLP340 T00890072
                 =
2018-02-22 19:54 METAR KOFP 230054Z AUTO VRB05KT 10SM OVC008 10/08 A3053 RMK AO2 SLP338 T01000083
                 =
2018-02-22 18:54 METAR KOFP 222354Z AUTO VRB04KT 10SM OVC009 11/09 A3050 RMK AO2 SLP328 T01110089
                 10167 20111 51036 =
2018-02-22 17:54 METAR KOFP 222254Z AUTO 02008KT 340V060 9SM OVC005 12/11 A3047 RMK AO2 SLP317
                 T01170106 =
2018-02-22 16:54 METAR KOFP 222154Z AUTO 02007KT 10SM OVC005 13/12 A3043 RMK AO2 SLP304 T01280117
                 =
2018-02-22 15:54 METAR KOFP 222054Z AUTO VRB06KT 10SM OVC007 15/13 A3039 RMK AO2 SLP291 T01500133
                 55006 =
2018-02-22 15:02 METAR KOFP 222002Z AUTO 06006KT 10SM OVC005 16/13 A3037 RMK AO2 T01560133 =

Support USWX by starting your Amazon purchase here.